sensor_id;sensor_type;location;lat;lon;timestamp;temperature;humidity
57652;DHT22;43480;53.116;6.734;2022-07-01T00:00:26;14.30;99.90
57652;DHT22;43480;53.116;6.734;2022-07-01T00:02:51;14.30;99.90
57652;DHT22;43480;53.116;6.734;2022-07-01T00:05:17;14.30;99.90
57652;DHT22;43480;53.116;6.734;2022-07-01T00:07:42;14.40;99.90
57652;DHT22;43480;53.116;6.734;2022-07-01T00:10:08;14.40;99.90
57652;DHT22;43480;53.116;6.734;2022-07-01T00:12:34;14.40;99.90
57652;DHT22;43480;53.116;6.734;2022-07-01T00:14:59;14.30;99.90
57652;DHT22;43480;53.116;6.734;2022-07-01T00:17:25;14.30;99.90
57652;DHT22;43480;53.116;6.734;2022-07-01T00:19:50;14.40;99.90
57652;DHT22;43480;53.116;6.734;2022-07-01T00:22:16;14.50;99.90
57652;DHT22;43480;53.116;6.734;2022-07-01T00:24:42;14.50;99.90
57652;DHT22;43480;53.116;6.734;2022-07-01T00:27:07;14.50;99.90
57652;DHT22;43480;53.116;6.734;2022-07-01T00:29:33;14.40;99.90
57652;DHT22;43480;53.116;6.734;2022-07-01T00:31:59;14.50;99.90
57652;DHT22;43480;53.116;6.734;2022-07-01T00:34:24;14.50;99.90
57652;DHT22;43480;53.116;6.734;2022-07-01T00:36:50;14.50;99.90
57652;DHT22;43480;53.116;6.734;2022-07-01T00:39:16;14.60;99.90
57652;DHT22;43480;53.116;6.734;2022-07-01T00:41:41;14.60;99.90
57652;DHT22;43480;53.116;6.734;2022-07-01T00:44:15;14.70;99.90
57652;DHT22;43480;53.116;6.734;2022-07-01T00:46:40;14.70;99.90
57652;DHT22;43480;53.116;6.734;2022-07-01T00:49:06;14.70;99.90
57652;DHT22;43480;53.116;6.734;2022-07-01T00:51:32;14.60;99.90
57652;DHT22;43480;53.116;6.734;2022-07-01T00:53:57;14.60;99.90
57652;DHT22;43480;53.116;6.734;2022-07-01T00:56:24;14.70;99.90
57652;DHT22;43480;53.116;6.734;2022-07-01T00:58:50;14.70;99.90
57652;DHT22;43480;53.116;6.734;2022-07-01T01:01:15;14.70;99.90
57652;DHT22;43480;53.116;6.734;2022-07-01T01:03:41;14.70;99.90
57652;DHT22;43480;53.116;6.734;2022-07-01T01:06:06;14.70;99.90
57652;DHT22;43480;53.116;6.734;2022-07-01T01:08:33;14.70;99.90
57652;DHT22;43480;53.116;6.734;2022-07-01T01:10:58;14.70;99.90
57652;DHT22;43480;53.116;6.734;2022-07-01T01:13:24;14.70;99.90
57652;DHT22;43480;53.116;6.734;2022-07-01T01:15:49;14.60;99.90
57652;DHT22;43480;53.116;6.734;2022-07-01T01:18:15;14.60;99.90
57652;DHT22;43480;53.116;6.734;2022-07-01T01:20:40;14.60;99.90
57652;DHT22;43480;53.116;6.734;2022-07-01T01:23:06;14.70;99.90
57652;DHT22;43480;53.116;6.734;2022-07-01T01:25:32;14.60;99.90
57652;DHT22;43480;53.116;6.734;2022-07-01T01:27:58;14.60;99.90
57652;DHT22;43480;53.116;6.734;2022-07-01T01:30:23;14.60;99.90
57652;DHT22;43480;53.116;6.734;2022-07-01T01:32:49;14.60;99.90
57652;DHT22;43480;53.116;6.734;2022-07-01T01:35:15;14.70;99.90
57652;DHT22;43480;53.116;6.734;2022-07-01T01:37:40;14.70;99.90
57652;DHT22;43480;53.116;6.734;2022-07-01T01:40:06;14.80;99.90
57652;DHT22;43480;53.116;6.734;2022-07-01T01:42:32;14.70;99.90
57652;DHT22;43480;53.116;6.734;2022-07-01T01:44:57;14.70;99.90
57652;DHT22;43480;53.116;6.734;2022-07-01T01:47:23;14.70;99.90
57652;DHT22;43480;53.116;6.734;2022-07-01T01:49:49;14.70;99.90
57652;DHT22;43480;53.116;6.734;2022-07-01T01:52:14;14.70;99.90
57652;DHT22;43480;53.116;6.734;2022-07-01T01:54:40;14.70;99.90
57652;DHT22;43480;53.116;6.734;2022-07-01T01:57:05;14.70;99.90
57652;DHT22;43480;53.116;6.734;2022-07-01T01:59:31;14.70;99.90
57652;DHT22;43480;53.116;6.734;2022-07-01T02:01:56;14.70;99.90
57652;DHT22;43480;53.116;6.734;2022-07-01T02:04:22;14.70;99.90
57652;DHT22;43480;53.116;6.734;2022-07-01T02:06:51;14.60;99.90
57652;DHT22;43480;53.116;6.734;2022-07-01T02:09:17;14.70;99.90
57652;DHT22;43480;53.116;6.734;2022-07-01T02:11:42;14.60;99.90
57652;DHT22;43480;53.116;6.734;2022-07-01T02:14:08;14.60;99.90
57652;DHT22;43480;53.116;6.734;2022-07-01T02:16:33;14.60;99.90
57652;DHT22;43480;53.116;6.734;2022-07-01T02:18:59;14.50;99.90
57652;DHT22;43480;53.116;6.734;2022-07-01T02:21:25;14.50;99.90
57652;DHT22;43480;53.116;6.734;2022-07-01T02:23:50;14.50;99.90
57652;DHT22;43480;53.116;6.734;2022-07-01T02:26:17;14.60;99.90
57652;DHT22;43480;53.116;6.734;2022-07-01T02:28:42;14.50;99.90
57652;DHT22;43480;53.116;6.734;2022-07-01T02:31:08;14.50;99.90
57652;DHT22;43480;53.116;6.734;2022-07-01T02:33:33;14.50;99.90
57652;DHT22;43480;53.116;6.734;2022-07-01T02:35:59;14.50;99.90
57652;DHT22;43480;53.116;6.734;2022-07-01T02:38:24;14.40;99.90
57652;DHT22;43480;53.116;6.734;2022-07-01T02:40:50;14.40;99.90
57652;DHT22;43480;53.116;6.734;2022-07-01T02:43:15;14.50;99.90
57652;DHT22;43480;53.116;6.734;2022-07-01T02:45:41;14.40;99.90
57652;DHT22;43480;53.116;6.734;2022-07-01T02:48:07;14.40;99.90
57652;DHT22;43480;53.116;6.734;2022-07-01T02:50:32;14.40;99.90
57652;DHT22;43480;53.116;6.734;2022-07-01T02:52:58;14.40;99.90
57652;DHT22;43480;53.116;6.734;2022-07-01T02:55:23;14.30;99.90
57652;DHT22;43480;53.116;6.734;2022-07-01T02:57:49;14.30;99.90
57652;DHT22;43480;53.116;6.734;2022-07-01T03:00:17;14.30;99.90
57652;DHT22;43480;53.116;6.734;2022-07-01T03:02:43;14.30;99.90
57652;DHT22;43480;53.116;6.734;2022-07-01T03:05:08;14.20;99.90
57652;DHT22;43480;53.116;6.734;2022-07-01T03:07:36;14.20;99.90
57652;DHT22;43480;53.116;6.734;2022-07-01T03:10:02;14.20;99.90
57652;DHT22;43480;53.116;6.734;2022-07-01T03:12:28;14.20;99.90
57652;DHT22;43480;53.116;6.734;2022-07-01T03:14:54;14.10;99.90
57652;DHT22;43480;53.116;6.734;2022-07-01T03:17:20;14.10;99.90
57652;DHT22;43480;53.116;6.734;2022-07-01T03:19:46;14.10;99.90
57652;DHT22;43480;53.116;6.734;2022-07-01T03:22:11;14.00;99.90
57652;DHT22;43480;53.116;6.734;2022-07-01T03:24:37;14.10;99.90
57652;DHT22;43480;53.116;6.734;2022-07-01T03:27:02;14.00;99.90
57652;DHT22;43480;53.116;6.734;2022-07-01T03:29:28;14.00;99.90
57652;DHT22;43480;53.116;6.734;2022-07-01T03:31:54;14.00;99.90
57652;DHT22;43480;53.116;6.734;2022-07-01T03:34:19;14.00;99.90
57652;DHT22;43480;53.116;6.734;2022-07-01T03:36:45;14.00;99.90
57652;DHT22;43480;53.116;6.734;2022-07-01T03:39:10;14.10;99.90
57652;DHT22;43480;53.116;6.734;2022-07-01T03:41:36;14.10;99.90
57652;DHT22;43480;53.116;6.734;2022-07-01T03:44:01;14.00;99.90
57652;DHT22;43480;53.116;6.734;2022-07-01T03:46:27;14.00;99.90
57652;DHT22;43480;53.116;6.734;2022-07-01T03:48:56;14.10;99.90
57652;DHT22;43480;53.116;6.734;2022-07-01T03:51:22;14.20;99.90
57652;DHT22;43480;53.116;6.734;2022-07-01T03:53:47;14.20;99.90
57652;DHT22;43480;53.116;6.734;2022-07-01T03:56:31;14.20;99.90
57652;DHT22;43480;53.116;6.734;2022-07-01T03:58:57;14.20;99.90
57652;DHT22;43480;53.116;6.734;2022-07-01T04:01:22;14.20;99.90
57652;DHT22;43480;53.116;6.734;2022-07-01T04:03:48;14.20;99.90
57652;DHT22;43480;53.116;6.734;2022-07-01T04:06:13;14.20;99.90
57652;DHT22;43480;53.116;6.734;2022-07-01T04:08:39;14.30;99.90
57652;DHT22;43480;53.116;6.734;2022-07-01T04:11:05;14.20;99.90
57652;DHT22;43480;53.116;6.734;2022-07-01T04:13:33;14.20;99.90
57652;DHT22;43480;53.116;6.734;2022-07-01T04:15:59;14.30;99.90
57652;DHT22;43480;53.116;6.734;2022-07-01T04:18:26;14.30;99.90
57652;DHT22;43480;53.116;6.734;2022-07-01T04:20:51;14.30;99.90
57652;DHT22;43480;53.116;6.734;2022-07-01T04:23:35;14.30;99.90
57652;DHT22;43480;53.116;6.734;2022-07-01T04:26:01;14.40;99.90
57652;DHT22;43480;53.116;6.734;2022-07-01T04:28:27;14.40;99.90
57652;DHT22;43480;53.116;6.734;2022-07-01T04:30:53;14.40;99.90
57652;DHT22;43480;53.116;6.734;2022-07-01T04:33:18;14.40;99.90
57652;DHT22;43480;53.116;6.734;2022-07-01T04:35:44;14.50;99.90
57652;DHT22;43480;53.116;6.734;2022-07-01T04:38:09;14.40;99.90
57652;DHT22;43480;53.116;6.734;2022-07-01T04:40:35;14.40;99.90
57652;DHT22;43480;53.116;6.734;2022-07-01T04:43:00;14.50;99.90
57652;DHT22;43480;53.116;6.734;2022-07-01T04:45:26;14.50;99.90
57652;DHT22;43480;53.116;6.734;2022-07-01T04:47:51;14.40;99.90
57652;DHT22;43480;53.116;6.734;2022-07-01T04:50:17;14.50;99.90
57652;DHT22;43480;53.116;6.734;2022-07-01T04:52:42;14.50;99.90
57652;DHT22;43480;53.116;6.734;2022-07-01T04:55:08;14.60;99.90
57652;DHT22;43480;53.116;6.734;2022-07-01T04:57:33;14.60;99.90
57652;DHT22;43480;53.116;6.734;2022-07-01T04:59:59;14.60;99.90
57652;DHT22;43480;53.116;6.734;2022-07-01T05:02:24;14.60;99.90
57652;DHT22;43480;53.116;6.734;2022-07-01T05:04:50;14.60;99.90
57652;DHT22;43480;53.116;6.734;2022-07-01T05:07:15;14.60;99.90
57652;DHT22;43480;53.116;6.734;2022-07-01T05:09:54;14.60;99.90
57652;DHT22;43480;53.116;6.734;2022-07-01T05:12:19;14.60;99.90
57652;DHT22;43480;53.116;6.734;2022-07-01T05:14:45;14.60;99.90
57652;DHT22;43480;53.116;6.734;2022-07-01T05:17:10;14.60;99.90
57652;DHT22;43480;53.116;6.734;2022-07-01T05:19:36;14.60;99.90
57652;DHT22;43480;53.116;6.734;2022-07-01T05:22:20;14.60;99.90
57652;DHT22;43480;53.116;6.734;2022-07-01T05:24:45;14.60;99.90
57652;DHT22;43480;53.116;6.734;2022-07-01T05:27:11;14.70;99.90
57652;DHT22;43480;53.116;6.734;2022-07-01T05:29:36;14.80;99.90
57652;DHT22;43480;53.116;6.734;2022-07-01T05:32:02;14.80;99.90
57652;DHT22;43480;53.116;6.734;2022-07-01T05:34:27;14.80;99.90
57652;DHT22;43480;53.116;6.734;2022-07-01T05:36:53;14.70;99.90
57652;DHT22;43480;53.116;6.734;2022-07-01T05:39:18;14.80;99.90
57652;DHT22;43480;53.116;6.734;2022-07-01T05:41:44;14.80;99.90
57652;DHT22;43480;53.116;6.734;2022-07-01T05:44:10;14.90;99.90
57652;DHT22;43480;53.116;6.734;2022-07-01T05:46:36;14.80;99.90
57652;DHT22;43480;53.116;6.734;2022-07-01T05:49:02;14.90;99.90
57652;DHT22;43480;53.116;6.734;2022-07-01T05:51:27;14.90;99.90
57652;DHT22;43480;53.116;6.734;2022-07-01T05:53:53;15.00;99.90
57652;DHT22;43480;53.116;6.734;2022-07-01T05:56:18;15.00;99.90
57652;DHT22;43480;53.116;6.734;2022-07-01T05:58:44;15.00;99.90
57652;DHT22;43480;53.116;6.734;2022-07-01T06:01:10;15.00;99.90
57652;DHT22;43480;53.116;6.734;2022-07-01T06:03:35;15.00;99.90
57652;DHT22;43480;53.116;6.734;2022-07-01T06:23:23;15.20;99.90
57652;DHT22;43480;53.116;6.734;2022-07-01T06:25:48;15.20;99.90
57652;DHT22;43480;53.116;6.734;2022-07-01T06:28:14;15.00;99.90
57652;DHT22;43480;53.116;6.734;2022-07-01T06:30:39;15.00;99.90
57652;DHT22;43480;53.116;6.734;2022-07-01T06:33:08;15.00;99.90
57652;DHT22;43480;53.116;6.734;2022-07-01T06:35:34;14.90;99.90
57652;DHT22;43480;53.116;6.734;2022-07-01T06:37:59;15.00;99.90
57652;DHT22;43480;53.116;6.734;2022-07-01T06:40:25;15.10;99.90
57652;DHT22;43480;53.116;6.734;2022-07-01T06:42:51;15.30;99.90
57652;DHT22;43480;53.116;6.734;2022-07-01T06:45:18;15.30;99.90
57652;DHT22;43480;53.116;6.734;2022-07-01T06:47:43;15.40;99.90
57652;DHT22;43480;53.116;6.734;2022-07-01T06:50:09;15.40;99.90
57652;DHT22;43480;53.116;6.734;2022-07-01T06:52:34;15.40;99.90
57652;DHT22;43480;53.116;6.734;2022-07-01T06:55:00;15.30;99.90
57652;DHT22;43480;53.116;6.734;2022-07-01T06:57:26;15.30;99.90
57652;DHT22;43480;53.116;6.734;2022-07-01T06:59:51;15.40;99.90
57652;DHT22;43480;53.116;6.734;2022-07-01T07:02:17;15.50;99.90
57652;DHT22;43480;53.116;6.734;2022-07-01T07:04:43;15.40;99.90
57652;DHT22;43480;53.116;6.734;2022-07-01T07:07:08;15.50;99.90
57652;DHT22;43480;53.116;6.734;2022-07-01T07:09:34;15.50;99.90
57652;DHT22;43480;53.116;6.734;2022-07-01T07:11:59;15.40;99.90
57652;DHT22;43480;53.116;6.734;2022-07-01T07:14:24;15.40;99.90
57652;DHT22;43480;53.116;6.734;2022-07-01T07:16:50;15.40;99.90
57652;DHT22;43480;53.116;6.734;2022-07-01T07:19:16;15.30;99.90
57652;DHT22;43480;53.116;6.734;2022-07-01T07:21:42;15.30;99.90
57652;DHT22;43480;53.116;6.734;2022-07-01T07:24:07;15.30;99.90
57652;DHT22;43480;53.116;6.734;2022-07-01T07:26:33;15.30;99.90
57652;DHT22;43480;53.116;6.734;2022-07-01T07:28:58;15.30;99.90
57652;DHT22;43480;53.116;6.734;2022-07-01T07:31:24;15.40;99.90
57652;DHT22;43480;53.116;6.734;2022-07-01T07:33:49;15.40;99.90
57652;DHT22;43480;53.116;6.734;2022-07-01T07:36:15;15.40;99.90
57652;DHT22;43480;53.116;6.734;2022-07-01T07:38:40;15.50;99.90
57652;DHT22;43480;53.116;6.734;2022-07-01T07:41:06;15.60;99.90
57652;DHT22;43480;53.116;6.734;2022-07-01T07:43:31;15.60;99.90
57652;DHT22;43480;53.116;6.734;2022-07-01T07:45:57;15.60;99.90
57652;DHT22;43480;53.116;6.734;2022-07-01T07:48:23;15.50;99.90
57652;DHT22;43480;53.116;6.734;2022-07-01T07:50:48;15.40;99.90
57652;DHT22;43480;53.116;6.734;2022-07-01T07:53:14;15.50;99.90
57652;DHT22;43480;53.116;6.734;2022-07-01T07:55:39;15.60;99.90
57652;DHT22;43480;53.116;6.734;2022-07-01T07:58:06;15.80;99.90
57652;DHT22;43480;53.116;6.734;2022-07-01T08:00:32;15.80;99.90
57652;DHT22;43480;53.116;6.734;2022-07-01T08:02:57;15.80;99.90
57652;DHT22;43480;53.116;6.734;2022-07-01T08:05:23;15.80;99.90
57652;DHT22;43480;53.116;6.734;2022-07-01T08:07:48;15.70;99.90
57652;DHT22;43480;53.116;6.734;2022-07-01T08:10:14;15.70;99.90
57652;DHT22;43480;53.116;6.734;2022-07-01T08:12:40;15.80;99.90
57652;DHT22;43480;53.116;6.734;2022-07-01T08:15:06;15.80;99.90
57652;DHT22;43480;53.116;6.734;2022-07-01T08:17:32;15.90;99.90
57652;DHT22;43480;53.116;6.734;2022-07-01T08:19:58;16.10;99.90
57652;DHT22;43480;53.116;6.734;2022-07-01T08:22:23;16.30;99.90
57652;DHT22;43480;53.116;6.734;2022-07-01T08:24:49;16.30;99.90
57652;DHT22;43480;53.116;6.734;2022-07-01T08:27:15;16.30;99.90
57652;DHT22;43480;53.116;6.734;2022-07-01T08:29:40;16.40;99.90
57652;DHT22;43480;53.116;6.734;2022-07-01T08:32:06;16.40;99.90
57652;DHT22;43480;53.116;6.734;2022-07-01T08:34:32;16.40;99.90
57652;DHT22;43480;53.116;6.734;2022-07-01T08:36:57;16.50;99.90
57652;DHT22;43480;53.116;6.734;2022-07-01T08:39:23;16.50;99.90
57652;DHT22;43480;53.116;6.734;2022-07-01T08:41:48;16.50;99.90
57652;DHT22;43480;53.116;6.734;2022-07-01T08:44:14;16.50;99.90
57652;DHT22;43480;53.116;6.734;2022-07-01T08:46:40;16.60;99.90
57652;DHT22;43480;53.116;6.734;2022-07-01T08:49:05;16.60;99.90
57652;DHT22;43480;53.116;6.734;2022-07-01T08:51:31;16.70;99.90
57652;DHT22;43480;53.116;6.734;2022-07-01T08:53:57;16.70;99.90
57652;DHT22;43480;53.116;6.734;2022-07-01T08:56:22;16.90;99.90
57652;DHT22;43480;53.116;6.734;2022-07-01T08:59:06;17.10;99.90
57652;DHT22;43480;53.116;6.734;2022-07-01T09:01:32;17.20;99.90
57652;DHT22;43480;53.116;6.734;2022-07-01T09:04:12;17.20;99.90
57652;DHT22;43480;53.116;6.734;2022-07-01T09:06:37;17.10;99.90
57652;DHT22;43480;53.116;6.734;2022-07-01T09:09:16;17.20;99.90
57652;DHT22;43480;53.116;6.734;2022-07-01T09:11:51;17.40;99.90
57652;DHT22;43480;53.116;6.734;2022-07-01T09:14:21;17.90;99.90
57652;DHT22;43480;53.116;6.734;2022-07-01T09:16:51;18.20;99.90
57652;DHT22;43480;53.116;6.734;2022-07-01T09:19:18;18.40;99.90
57652;DHT22;43480;53.116;6.734;2022-07-01T09:21:51;18.60;99.90
57652;DHT22;43480;53.116;6.734;2022-07-01T09:24:24;18.70;99.90
57652;DHT22;43480;53.116;6.734;2022-07-01T09:26:53;18.50;99.90
57652;DHT22;43480;53.116;6.734;2022-07-01T09:29:19;18.40;99.90
57652;DHT22;43480;53.116;6.734;2022-07-01T09:31:48;18.20;99.90
57652;DHT22;43480;53.116;6.734;2022-07-01T09:34:15;18.10;99.90
57652;DHT22;43480;53.116;6.734;2022-07-01T09:36:40;18.10;99.90
57652;DHT22;43480;53.116;6.734;2022-07-01T09:39:06;18.20;99.90
57652;DHT22;43480;53.116;6.734;2022-07-01T09:41:34;18.30;99.90
57652;DHT22;43480;53.116;6.734;2022-07-01T09:44:04;18.30;99.90
57652;DHT22;43480;53.116;6.734;2022-07-01T09:46:30;18.40;99.90
57652;DHT22;43480;53.116;6.734;2022-07-01T09:48:55;18.40;99.90
57652;DHT22;43480;53.116;6.734;2022-07-01T09:51:21;18.50;99.90
57652;DHT22;43480;53.116;6.734;2022-07-01T09:53:46;18.40;99.90
57652;DHT22;43480;53.116;6.734;2022-07-01T09:56:12;18.40;99.90
57652;DHT22;43480;53.116;6.734;2022-07-01T09:58:38;18.50;99.90
57652;DHT22;43480;53.116;6.734;2022-07-01T10:01:04;18.70;99.90
57652;DHT22;43480;53.116;6.734;2022-07-01T10:03:31;18.70;99.90
57652;DHT22;43480;53.116;6.734;2022-07-01T10:06:08;18.80;99.90
57652;DHT22;43480;53.116;6.734;2022-07-01T10:13:56;19.60;99.90
57652;DHT22;43480;53.116;6.734;2022-07-01T10:16:22;19.60;99.90
57652;DHT22;43480;53.116;6.734;2022-07-01T10:18:48;19.60;99.90
57652;DHT22;43480;53.116;6.734;2022-07-01T10:21:29;19.40;99.90
57652;DHT22;43480;53.116;6.734;2022-07-01T10:24:16;19.40;99.90
57652;DHT22;43480;53.116;6.734;2022-07-01T10:26:41;19.40;99.90
57652;DHT22;43480;53.116;6.734;2022-07-01T10:31:52;20.10;99.90
57652;DHT22;43480;53.116;6.734;2022-07-01T10:34:18;20.20;99.90
57652;DHT22;43480;53.116;6.734;2022-07-01T10:36:44;20.50;99.90
57652;DHT22;43480;53.116;6.734;2022-07-01T10:39:10;20.70;99.90
57652;DHT22;43480;53.116;6.734;2022-07-01T10:41:37;20.70;99.90
57652;DHT22;43480;53.116;6.734;2022-07-01T10:44:05;20.60;99.90
57652;DHT22;43480;53.116;6.734;2022-07-01T10:46:44;20.60;99.90
57652;DHT22;43480;53.116;6.734;2022-07-01T10:49:11;20.50;99.90
57652;DHT22;43480;53.116;6.734;2022-07-01T10:57:18;19.80;99.90
57652;DHT22;43480;53.116;6.734;2022-07-01T10:59:44;19.90;99.90
57652;DHT22;43480;53.116;6.734;2022-07-01T11:02:14;20.30;99.90
57652;DHT22;43480;53.116;6.734;2022-07-01T11:04:40;20.50;99.90
57652;DHT22;43480;53.116;6.734;2022-07-01T11:07:05;20.50;99.90
57652;DHT22;43480;53.116;6.734;2022-07-01T11:09:31;20.50;99.90
57652;DHT22;43480;53.116;6.734;2022-07-01T11:11:56;20.60;99.90
57652;DHT22;43480;53.116;6.734;2022-07-01T11:14:22;20.60;99.90
57652;DHT22;43480;53.116;6.734;2022-07-01T11:16:48;20.90;99.90
57652;DHT22;43480;53.116;6.734;2022-07-01T11:19:16;21.20;99.90
57652;DHT22;43480;53.116;6.734;2022-07-01T11:21:48;21.30;99.90
57652;DHT22;43480;53.116;6.734;2022-07-01T11:24:13;21.20;99.90
57652;DHT22;43480;53.116;6.734;2022-07-01T11:26:39;21.40;99.90
57652;DHT22;43480;53.116;6.734;2022-07-01T11:29:04;21.70;99.90
57652;DHT22;43480;53.116;6.734;2022-07-01T11:31:30;21.80;99.90
57652;DHT22;43480;53.116;6.734;2022-07-01T11:33:56;21.80;99.90
57652;DHT22;43480;53.116;6.734;2022-07-01T11:36:22;21.70;99.90
57652;DHT22;43480;53.116;6.734;2022-07-01T11:39:06;21.80;99.90
57652;DHT22;43480;53.116;6.734;2022-07-01T11:41:53;21.60;99.90
57652;DHT22;43480;53.116;6.734;2022-07-01T11:44:32;20.90;99.90
57652;DHT22;43480;53.116;6.734;2022-07-01T11:46:59;20.30;99.90
57652;DHT22;43480;53.116;6.734;2022-07-01T11:49:25;19.80;99.90
57652;DHT22;43480;53.116;6.734;2022-07-01T11:51:54;19.50;99.90
57652;DHT22;43480;53.116;6.734;2022-07-01T11:54:20;19.40;99.90
57652;DHT22;43480;53.116;6.734;2022-07-01T11:56:46;19.30;99.90
57652;DHT22;43480;53.116;6.734;2022-07-01T11:59:12;19.40;99.90
57652;DHT22;43480;53.116;6.734;2022-07-01T12:01:37;19.30;99.90
57652;DHT22;43480;53.116;6.734;2022-07-01T12:04:04;19.00;99.90
57652;DHT22;43480;53.116;6.734;2022-07-01T12:06:30;18.80;99.90
57652;DHT22;43480;53.116;6.734;2022-07-01T12:08:56;18.70;99.90
57652;DHT22;43480;53.116;6.734;2022-07-01T12:11:22;18.60;99.90
57652;DHT22;43480;53.116;6.734;2022-07-01T12:13:48;18.50;99.90
57652;DHT22;43480;53.116;6.734;2022-07-01T12:16:14;18.50;99.90
57652;DHT22;43480;53.116;6.734;2022-07-01T12:18:50;18.60;99.90
57652;DHT22;43480;53.116;6.734;2022-07-01T12:21:15;18.70;99.90
57652;DHT22;43480;53.116;6.734;2022-07-01T12:23:41;19.10;99.90
57652;DHT22;43480;53.116;6.734;2022-07-01T12:26:07;19.60;99.90
57652;DHT22;43480;53.116;6.734;2022-07-01T12:28:36;20.00;99.90
57652;DHT22;43480;53.116;6.734;2022-07-01T12:31:03;20.60;99.90
57652;DHT22;43480;53.116;6.734;2022-07-01T12:33:29;21.30;99.90
57652;DHT22;43480;53.116;6.734;2022-07-01T12:35:55;21.70;99.90
57652;DHT22;43480;53.116;6.734;2022-07-01T12:38:21;21.60;99.90
57652;DHT22;43480;53.116;6.734;2022-07-01T12:40:47;21.60;99.90
57652;DHT22;43480;53.116;6.734;2022-07-01T12:43:31;21.80;99.90
57652;DHT22;43480;53.116;6.734;2022-07-01T12:46:00;22.30;99.90
57652;DHT22;43480;53.116;6.734;2022-07-01T12:48:26;22.50;99.90
57652;DHT22;43480;53.116;6.734;2022-07-01T12:50:56;22.40;99.90
57652;DHT22;43480;53.116;6.734;2022-07-01T12:53:22;22.20;99.90
57652;DHT22;43480;53.116;6.734;2022-07-01T12:55:49;22.50;99.90
57652;DHT22;43480;53.116;6.734;2022-07-01T12:58:16;22.70;99.90
57652;DHT22;43480;53.116;6.734;2022-07-01T13:00:43;22.90;99.90
57652;DHT22;43480;53.116;6.734;2022-07-01T13:03:08;23.00;75.00
57652;DHT22;43480;53.116;6.734;2022-07-01T13:05:35;23.20;99.90
57652;DHT22;43480;53.116;6.734;2022-07-01T13:08:01;23.20;98.90
57652;DHT22;43480;53.116;6.734;2022-07-01T13:10:27;23.40;96.70
57652;DHT22;43480;53.116;6.734;2022-07-01T13:12:52;23.40;99.50
57652;DHT22;43480;53.116;6.734;2022-07-01T13:15:18;23.50;99.90
57652;DHT22;43480;53.116;6.734;2022-07-01T13:17:46;23.70;94.80
57652;DHT22;43480;53.116;6.734;2022-07-01T13:20:12;23.70;90.80
57652;DHT22;43480;53.116;6.734;2022-07-01T13:22:38;23.70;92.30
57652;DHT22;43480;53.116;6.734;2022-07-01T13:25:04;23.70;82.90
57652;DHT22;43480;53.116;6.734;2022-07-01T13:27:30;23.80;99.90
57652;DHT22;43480;53.116;6.734;2022-07-01T13:29:56;24.00;94.50
57652;DHT22;43480;53.116;6.734;2022-07-01T13:32:24;24.20;99.10
57652;DHT22;43480;53.116;6.734;2022-07-01T13:34:50;24.30;96.50
57652;DHT22;43480;53.116;6.734;2022-07-01T13:37:15;24.30;98.50
57652;DHT22;43480;53.116;6.734;2022-07-01T13:39:41;24.20;93.70
57652;DHT22;43480;53.116;6.734;2022-07-01T13:42:06;23.90;72.10
57652;DHT22;43480;53.116;6.734;2022-07-01T13:44:32;23.60;93.50
57652;DHT22;43480;53.116;6.734;2022-07-01T13:46:58;23.30;70.60
57652;DHT22;43480;53.116;6.734;2022-07-01T13:49:24;22.90;82.80
57652;DHT22;43480;53.116;6.734;2022-07-01T13:51:49;22.90;87.40
57652;DHT22;43480;53.116;6.734;2022-07-01T13:54:15;23.30;96.50
57652;DHT22;43480;53.116;6.734;2022-07-01T13:56:40;23.70;74.70
57652;DHT22;43480;53.116;6.734;2022-07-01T13:59:07;24.10;93.90
57652;DHT22;43480;53.116;6.734;2022-07-01T14:01:33;24.50;82.70
57652;DHT22;43480;53.116;6.734;2022-07-01T14:04:00;25.00;99.90
57652;DHT22;43480;53.116;6.734;2022-07-01T14:06:25;25.00;89.50
57652;DHT22;43480;53.116;6.734;2022-07-01T14:08:51;24.70;93.80
57652;DHT22;43480;53.116;6.734;2022-07-01T14:11:17;24.50;96.00
57652;DHT22;43480;53.116;6.734;2022-07-01T14:13:42;24.30;81.90
57652;DHT22;43480;53.116;6.734;2022-07-01T14:16:08;23.90;99.90
57652;DHT22;43480;53.116;6.734;2022-07-01T14:18:34;23.60;72.60
57652;DHT22;43480;53.116;6.734;2022-07-01T14:21:00;23.40;90.90
57652;DHT22;43480;53.116;6.734;2022-07-01T14:23:25;23.10;99.70
57652;DHT22;43480;53.116;6.734;2022-07-01T14:25:51;22.80;93.70
57652;DHT22;43480;53.116;6.734;2022-07-01T14:28:17;22.90;89.20
57652;DHT22;43480;53.116;6.734;2022-07-01T14:30:42;23.00;97.60
57652;DHT22;43480;53.116;6.734;2022-07-01T14:33:08;23.00;90.40
57652;DHT22;43480;53.116;6.734;2022-07-01T14:35:34;22.90;81.70
57652;DHT22;43480;53.116;6.734;2022-07-01T14:37:59;22.70;82.30
57652;DHT22;43480;53.116;6.734;2022-07-01T14:40:26;22.80;74.30
57652;DHT22;43480;53.116;6.734;2022-07-01T14:42:51;22.90;83.00
57652;DHT22;43480;53.116;6.734;2022-07-01T14:45:17;23.60;86.70
57652;DHT22;43480;53.116;6.734;2022-07-01T14:47:43;24.00;84.80
57652;DHT22;43480;53.116;6.734;2022-07-01T14:50:09;24.40;80.10
57652;DHT22;43480;53.116;6.734;2022-07-01T14:52:35;24.10;71.20
57652;DHT22;43480;53.116;6.734;2022-07-01T14:55:01;23.70;69.50
57652;DHT22;43480;53.116;6.734;2022-07-01T14:57:26;23.40;76.70
57652;DHT22;43480;53.116;6.734;2022-07-01T14:59:52;23.40;90.20
57652;DHT22;43480;53.116;6.734;2022-07-01T15:02:17;22.90;72.20
57652;DHT22;43480;53.116;6.734;2022-07-01T15:04:43;22.50;90.60
57652;DHT22;43480;53.116;6.734;2022-07-01T15:07:09;22.00;92.90
57652;DHT22;43480;53.116;6.734;2022-07-01T15:09:34;21.80;95.70
57652;DHT22;43480;53.116;6.734;2022-07-01T15:12:00;21.50;92.20
57652;DHT22;43480;53.116;6.734;2022-07-01T15:14:26;21.60;99.40
57652;DHT22;43480;53.116;6.734;2022-07-01T15:16:51;22.20;97.70
57652;DHT22;43480;53.116;6.734;2022-07-01T15:19:17;23.10;96.70
57652;DHT22;43480;53.116;6.734;2022-07-01T15:21:42;23.80;86.40
57652;DHT22;43480;53.116;6.734;2022-07-01T15:24:08;24.40;73.90
57652;DHT22;43480;53.116;6.734;2022-07-01T15:26:34;24.60;62.00
57652;DHT22;43480;53.116;6.734;2022-07-01T15:28:59;24.60;65.70
57652;DHT22;43480;53.116;6.734;2022-07-01T15:31:25;24.60;60.90
57652;DHT22;43480;53.116;6.734;2022-07-01T15:33:51;24.80;62.00
57652;DHT22;43480;53.116;6.734;2022-07-01T15:36:16;24.70;62.70
57652;DHT22;43480;53.116;6.734;2022-07-01T15:38:42;24.80;65.60
57652;DHT22;43480;53.116;6.734;2022-07-01T15:41:07;24.80;60.00
57652;DHT22;43480;53.116;6.734;2022-07-01T15:43:34;24.80;60.30
57652;DHT22;43480;53.116;6.734;2022-07-01T15:46:00;24.70;59.90
57652;DHT22;43480;53.116;6.734;2022-07-01T15:48:26;24.60;62.30
57652;DHT22;43480;53.116;6.734;2022-07-01T15:50:51;24.70;62.00
57652;DHT22;43480;53.116;6.734;2022-07-01T15:53:18;24.30;59.80
57652;DHT22;43480;53.116;6.734;2022-07-01T15:55:43;24.20;60.60